sensor_id;sensor_type;location;lat;lon;timestamp;temperature;humidity
9201;DHT22;4635;48.686;9.008;2022-08-25T00:01:35;19.30;99.90
9201;DHT22;4635;48.686;9.008;2022-08-25T00:04:04;19.30;99.90
9201;DHT22;4635;48.686;9.008;2022-08-25T00:06:33;19.40;99.90
9201;DHT22;4635;48.686;9.008;2022-08-25T00:09:00;19.30;99.90
9201;DHT22;4635;48.686;9.008;2022-08-25T00:11:30;19.30;99.90
9201;DHT22;4635;48.686;9.008;2022-08-25T00:13:59;19.30;99.90
9201;DHT22;4635;48.686;9.008;2022-08-25T00:16:27;19.30;99.90
9201;DHT22;4635;48.686;9.008;2022-08-25T00:18:58;19.30;99.90
9201;DHT22;4635;48.686;9.008;2022-08-25T00:21:26;19.30;99.90
9201;DHT22;4635;48.686;9.008;2022-08-25T00:23:57;19.20;99.90
9201;DHT22;4635;48.686;9.008;2022-08-25T00:26:24;19.20;99.90
9201;DHT22;4635;48.686;9.008;2022-08-25T00:28:52;19.10;99.90
9201;DHT22;4635;48.686;9.008;2022-08-25T00:31:20;19.10;99.90
9201;DHT22;4635;48.686;9.008;2022-08-25T00:33:49;19.00;99.90
9201;DHT22;4635;48.686;9.008;2022-08-25T00:36:18;19.00;99.90
9201;DHT22;4635;48.686;9.008;2022-08-25T00:38:47;19.00;99.90
9201;DHT22;4635;48.686;9.008;2022-08-25T00:41:18;18.90;99.90
9201;DHT22;4635;48.686;9.008;2022-08-25T00:43:49;18.90;99.90
9201;DHT22;4635;48.686;9.008;2022-08-25T00:46:19;18.90;99.90
9201;DHT22;4635;48.686;9.008;2022-08-25T00:48:51;18.90;99.90
9201;DHT22;4635;48.686;9.008;2022-08-25T00:51:24;18.80;99.90
9201;DHT22;4635;48.686;9.008;2022-08-25T00:53:53;18.70;99.90
9201;DHT22;4635;48.686;9.008;2022-08-25T00:56:23;18.70;99.90
9201;DHT22;4635;48.686;9.008;2022-08-25T00:58:52;18.60;99.90
9201;DHT22;4635;48.686;9.008;2022-08-25T01:01:19;18.60;99.90
9201;DHT22;4635;48.686;9.008;2022-08-25T01:03:46;18.50;99.90
9201;DHT22;4635;48.686;9.008;2022-08-25T01:06:13;18.50;99.90
9201;DHT22;4635;48.686;9.008;2022-08-25T01:08:41;18.50;99.90
9201;DHT22;4635;48.686;9.008;2022-08-25T01:11:09;18.50;99.90
9201;DHT22;4635;48.686;9.008;2022-08-25T01:13:42;18.50;99.90
9201;DHT22;4635;48.686;9.008;2022-08-25T01:16:12;18.50;99.90
9201;DHT22;4635;48.686;9.008;2022-08-25T01:18:47;18.50;99.90
9201;DHT22;4635;48.686;9.008;2022-08-25T01:21:17;18.50;99.90
9201;DHT22;4635;48.686;9.008;2022-08-25T01:23:46;18.50;99.90
9201;DHT22;4635;48.686;9.008;2022-08-25T01:26:17;18.50;99.90
9201;DHT22;4635;48.686;9.008;2022-08-25T01:28:46;18.40;99.90
9201;DHT22;4635;48.686;9.008;2022-08-25T01:31:39;18.40;99.90
9201;DHT22;4635;48.686;9.008;2022-08-25T01:34:08;18.40;99.90
9201;DHT22;4635;48.686;9.008;2022-08-25T01:36:39;18.40;99.90
9201;DHT22;4635;48.686;9.008;2022-08-25T01:39:07;18.30;99.90
9201;DHT22;4635;48.686;9.008;2022-08-25T01:41:39;18.30;99.90
9201;DHT22;4635;48.686;9.008;2022-08-25T01:44:07;18.30;99.90
9201;DHT22;4635;48.686;9.008;2022-08-25T01:46:34;18.30;99.90
9201;DHT22;4635;48.686;9.008;2022-08-25T01:49:03;18.20;99.90
9201;DHT22;4635;48.686;9.008;2022-08-25T01:51:34;18.20;99.90
9201;DHT22;4635;48.686;9.008;2022-08-25T01:54:05;18.20;99.90
9201;DHT22;4635;48.686;9.008;2022-08-25T01:56:32;18.20;99.90
9201;DHT22;4635;48.686;9.008;2022-08-25T01:58:59;18.10;99.90
9201;DHT22;4635;48.686;9.008;2022-08-25T02:01:26;18.10;99.90
9201;DHT22;4635;48.686;9.008;2022-08-25T02:03:54;18.10;99.90
9201;DHT22;4635;48.686;9.008;2022-08-25T02:06:24;18.10;99.90
9201;DHT22;4635;48.686;9.008;2022-08-25T02:08:52;18.00;99.90
9201;DHT22;4635;48.686;9.008;2022-08-25T02:11:20;18.00;99.90
9201;DHT22;4635;48.686;9.008;2022-08-25T02:13:49;18.00;99.90
9201;DHT22;4635;48.686;9.008;2022-08-25T02:16:20;18.00;99.90
9201;DHT22;4635;48.686;9.008;2022-08-25T02:18:49;17.90;99.90
9201;DHT22;4635;48.686;9.008;2022-08-25T02:21:17;17.90;99.90
9201;DHT22;4635;48.686;9.008;2022-08-25T02:23:44;17.90;99.90
9201;DHT22;4635;48.686;9.008;2022-08-25T02:26:12;17.90;99.90
9201;DHT22;4635;48.686;9.008;2022-08-25T02:28:43;17.90;99.90
9201;DHT22;4635;48.686;9.008;2022-08-25T02:31:10;17.90;99.90
9201;DHT22;4635;48.686;9.008;2022-08-25T02:33:38;17.90;99.90
9201;DHT22;4635;48.686;9.008;2022-08-25T02:36:05;17.80;99.90
9201;DHT22;4635;48.686;9.008;2022-08-25T02:38:33;17.80;99.90
9201;DHT22;4635;48.686;9.008;2022-08-25T02:41:01;17.80;99.90
9201;DHT22;4635;48.686;9.008;2022-08-25T02:43:33;17.80;99.90
9201;DHT22;4635;48.686;9.008;2022-08-25T02:46:04;17.70;99.90
9201;DHT22;4635;48.686;9.008;2022-08-25T02:48:32;17.70;99.90
9201;DHT22;4635;48.686;9.008;2022-08-25T02:51:00;17.50;99.90
9201;DHT22;4635;48.686;9.008;2022-08-25T02:53:29;17.40;99.90
9201;DHT22;4635;48.686;9.008;2022-08-25T02:55:56;17.40;99.90
9201;DHT22;4635;48.686;9.008;2022-08-25T02:58:23;17.30;99.90
9201;DHT22;4635;48.686;9.008;2022-08-25T03:00:50;17.20;99.90
9201;DHT22;4635;48.686;9.008;2022-08-25T03:03:19;17.20;99.90
9201;DHT22;4635;48.686;9.008;2022-08-25T03:05:49;17.10;99.90
9201;DHT22;4635;48.686;9.008;2022-08-25T03:08:16;17.00;99.90
9201;DHT22;4635;48.686;9.008;2022-08-25T03:10:43;17.00;99.90
9201;DHT22;4635;48.686;9.008;2022-08-25T03:13:10;17.00;99.90
9201;DHT22;4635;48.686;9.008;2022-08-25T03:15:37;16.90;99.90
9201;DHT22;4635;48.686;9.008;2022-08-25T03:18:06;16.90;99.90
9201;DHT22;4635;48.686;9.008;2022-08-25T03:20:35;16.90;99.90
9201;DHT22;4635;48.686;9.008;2022-08-25T03:23:03;16.90;99.90
9201;DHT22;4635;48.686;9.008;2022-08-25T03:25:31;16.80;99.90
9201;DHT22;4635;48.686;9.008;2022-08-25T03:28:16;16.80;99.90
9201;DHT22;4635;48.686;9.008;2022-08-25T03:30:44;16.80;99.90
9201;DHT22;4635;48.686;9.008;2022-08-25T03:33:11;16.70;99.90
9201;DHT22;4635;48.686;9.008;2022-08-25T03:35:40;16.70;99.90
9201;DHT22;4635;48.686;9.008;2022-08-25T03:38:07;16.50;99.90
9201;DHT22;4635;48.686;9.008;2022-08-25T03:40:34;16.40;99.90
9201;DHT22;4635;48.686;9.008;2022-08-25T03:43:01;16.50;99.90
9201;DHT22;4635;48.686;9.008;2022-08-25T03:45:28;16.40;99.90
9201;DHT22;4635;48.686;9.008;2022-08-25T03:47:55;16.40;99.90
9201;DHT22;4635;48.686;9.008;2022-08-25T03:50:22;16.40;99.90
9201;DHT22;4635;48.686;9.008;2022-08-25T03:52:53;16.40;99.90
9201;DHT22;4635;48.686;9.008;2022-08-25T03:55:22;16.50;99.90
9201;DHT22;4635;48.686;9.008;2022-08-25T03:57:50;16.40;99.90
9201;DHT22;4635;48.686;9.008;2022-08-25T04:00:17;16.40;99.90
9201;DHT22;4635;48.686;9.008;2022-08-25T04:02:45;16.50;99.90
9201;DHT22;4635;48.686;9.008;2022-08-25T04:05:12;16.50;99.90
9201;DHT22;4635;48.686;9.008;2022-08-25T04:07:39;16.50;99.90
9201;DHT22;4635;48.686;9.008;2022-08-25T04:10:09;16.50;99.90
9201;DHT22;4635;48.686;9.008;2022-08-25T04:12:37;16.50;99.90
9201;DHT22;4635;48.686;9.008;2022-08-25T04:15:05;16.50;99.90
9201;DHT22;4635;48.686;9.008;2022-08-25T04:17:36;16.40;99.90
9201;DHT22;4635;48.686;9.008;2022-08-25T04:20:04;16.40;99.90
9201;DHT22;4635;48.686;9.008;2022-08-25T04:22:32;16.40;99.90
9201;DHT22;4635;48.686;9.008;2022-08-25T04:24:59;16.30;99.90
9201;DHT22;4635;48.686;9.008;2022-08-25T04:27:28;16.30;99.90
9201;DHT22;4635;48.686;9.008;2022-08-25T04:29:55;16.30;99.90
9201;DHT22;4635;48.686;9.008;2022-08-25T04:32:22;16.30;99.90
9201;DHT22;4635;48.686;9.008;2022-08-25T04:34:49;16.30;99.90
9201;DHT22;4635;48.686;9.008;2022-08-25T04:37:17;16.30;99.90
9201;DHT22;4635;48.686;9.008;2022-08-25T04:39:44;16.40;99.90
9201;DHT22;4635;48.686;9.008;2022-08-25T04:42:11;16.30;99.90
9201;DHT22;4635;48.686;9.008;2022-08-25T04:44:42;16.30;99.90
9201;DHT22;4635;48.686;9.008;2022-08-25T04:47:09;16.30;99.90
9201;DHT22;4635;48.686;9.008;2022-08-25T04:49:36;16.20;99.90
9201;DHT22;4635;48.686;9.008;2022-08-25T04:52:04;16.20;99.90
9201;DHT22;4635;48.686;9.008;2022-08-25T04:54:31;16.30;99.90
9201;DHT22;4635;48.686;9.008;2022-08-25T04:56:58;16.30;99.90
9201;DHT22;4635;48.686;9.008;2022-08-25T04:59:26;16.30;99.90
9201;DHT22;4635;48.686;9.008;2022-08-25T05:01:54;16.20;99.90
9201;DHT22;4635;48.686;9.008;2022-08-25T05:04:22;16.40;99.90
9201;DHT22;4635;48.686;9.008;2022-08-25T05:06:49;16.30;99.90
9201;DHT22;4635;48.686;9.008;2022-08-25T05:09:16;16.30;99.90
9201;DHT22;4635;48.686;9.008;2022-08-25T05:11:43;16.30;99.90
9201;DHT22;4635;48.686;9.008;2022-08-25T05:14:11;16.30;99.90
9201;DHT22;4635;48.686;9.008;2022-08-25T05:16:40;16.30;99.90
9201;DHT22;4635;48.686;9.008;2022-08-25T05:19:08;16.40;99.90
9201;DHT22;4635;48.686;9.008;2022-08-25T05:21:36;16.50;99.90
9201;DHT22;4635;48.686;9.008;2022-08-25T05:24:04;16.60;99.90
9201;DHT22;4635;48.686;9.008;2022-08-25T05:26:32;16.60;99.90
9201;DHT22;4635;48.686;9.008;2022-08-25T05:29:05;16.60;99.90
9201;DHT22;4635;48.686;9.008;2022-08-25T05:31:32;16.60;99.90
9201;DHT22;4635;48.686;9.008;2022-08-25T05:34:05;16.60;99.90
9201;DHT22;4635;48.686;9.008;2022-08-25T05:36:34;16.70;99.90
9201;DHT22;4635;48.686;9.008;2022-08-25T05:39:03;16.70;99.90
9201;DHT22;4635;48.686;9.008;2022-08-25T05:41:31;16.80;99.90
9201;DHT22;4635;48.686;9.008;2022-08-25T05:43:58;16.90;99.90
9201;DHT22;4635;48.686;9.008;2022-08-25T05:46:28;17.00;99.90
9201;DHT22;4635;48.686;9.008;2022-08-25T05:48:55;17.10;99.90
9201;DHT22;4635;48.686;9.008;2022-08-25T05:51:22;17.10;99.90
9201;DHT22;4635;48.686;9.008;2022-08-25T05:53:52;17.20;99.90
9201;DHT22;4635;48.686;9.008;2022-08-25T05:56:19;17.30;99.90
9201;DHT22;4635;48.686;9.008;2022-08-25T05:58:46;17.40;99.90
9201;DHT22;4635;48.686;9.008;2022-08-25T06:01:22;17.50;99.90
9201;DHT22;4635;48.686;9.008;2022-08-25T06:04:09;17.60;99.90
9201;DHT22;4635;48.686;9.008;2022-08-25T06:06:38;17.80;99.90
9201;DHT22;4635;48.686;9.008;2022-08-25T06:09:06;18.00;99.90
9201;DHT22;4635;48.686;9.008;2022-08-25T06:11:35;18.20;99.90
9201;DHT22;4635;48.686;9.008;2022-08-25T06:14:04;18.20;99.90
9201;DHT22;4635;48.686;9.008;2022-08-25T06:16:31;18.30;99.90
9201;DHT22;4635;48.686;9.008;2022-08-25T06:18:59;18.40;99.90
9201;DHT22;4635;48.686;9.008;2022-08-25T06:21:26;18.40;99.90
9201;DHT22;4635;48.686;9.008;2022-08-25T06:23:55;18.50;99.90
9201;DHT22;4635;48.686;9.008;2022-08-25T06:26:39;18.60;99.90
9201;DHT22;4635;48.686;9.008;2022-08-25T06:29:08;18.80;99.90
9201;DHT22;4635;48.686;9.008;2022-08-25T06:31:36;18.80;99.90
9201;DHT22;4635;48.686;9.008;2022-08-25T06:34:03;18.80;99.90
9201;DHT22;4635;48.686;9.008;2022-08-25T06:36:30;18.90;99.90
9201;DHT22;4635;48.686;9.008;2022-08-25T06:38:58;19.00;99.90
9201;DHT22;4635;48.686;9.008;2022-08-25T06:41:25;19.00;99.90
9201;DHT22;4635;48.686;9.008;2022-08-25T06:43:56;19.00;99.90
9201;DHT22;4635;48.686;9.008;2022-08-25T06:46:26;19.30;99.90
9201;DHT22;4635;48.686;9.008;2022-08-25T06:48:55;19.50;99.90
9201;DHT22;4635;48.686;9.008;2022-08-25T06:51:23;19.60;99.90
9201;DHT22;4635;48.686;9.008;2022-08-25T06:53:51;19.70;99.90
9201;DHT22;4635;48.686;9.008;2022-08-25T06:56:20;19.90;99.90
9201;DHT22;4635;48.686;9.008;2022-08-25T06:58:48;19.90;99.90
9201;DHT22;4635;48.686;9.008;2022-08-25T07:01:18;20.00;99.90
9201;DHT22;4635;48.686;9.008;2022-08-25T07:03:47;20.20;99.90
9201;DHT22;4635;48.686;9.008;2022-08-25T07:06:15;20.30;99.90
9201;DHT22;4635;48.686;9.008;2022-08-25T07:08:43;20.40;99.90
9201;DHT22;4635;48.686;9.008;2022-08-25T07:11:13;20.50;99.90
9201;DHT22;4635;48.686;9.008;2022-08-25T07:13:41;20.60;99.90
9201;DHT22;4635;48.686;9.008;2022-08-25T07:16:08;20.50;99.90
9201;DHT22;4635;48.686;9.008;2022-08-25T07:18:38;20.70;99.90
9201;DHT22;4635;48.686;9.008;2022-08-25T07:21:09;20.80;99.90
9201;DHT22;4635;48.686;9.008;2022-08-25T07:23:39;21.00;99.90
9201;DHT22;4635;48.686;9.008;2022-08-25T07:26:12;21.10;99.90
9201;DHT22;4635;48.686;9.008;2022-08-25T07:28:45;21.30;99.90
9201;DHT22;4635;48.686;9.008;2022-08-25T07:31:16;21.40;99.90
9201;DHT22;4635;48.686;9.008;2022-08-25T07:33:45;21.60;99.90
9201;DHT22;4635;48.686;9.008;2022-08-25T07:36:26;21.60;99.90
9201;DHT22;4635;48.686;9.008;2022-08-25T07:38:54;21.70;99.90
9201;DHT22;4635;48.686;9.008;2022-08-25T07:41:21;21.80;99.90
9201;DHT22;4635;48.686;9.008;2022-08-25T07:43:49;21.90;99.90
9201;DHT22;4635;48.686;9.008;2022-08-25T07:46:19;21.90;99.90
9201;DHT22;4635;48.686;9.008;2022-08-25T07:48:48;21.90;99.90
9201;DHT22;4635;48.686;9.008;2022-08-25T07:51:21;21.80;99.90
9201;DHT22;4635;48.686;9.008;2022-08-25T07:53:49;22.00;99.90
9201;DHT22;4635;48.686;9.008;2022-08-25T07:56:23;22.10;99.90
9201;DHT22;4635;48.686;9.008;2022-08-25T07:58:50;22.10;99.90
9201;DHT22;4635;48.686;9.008;2022-08-25T08:01:19;22.30;99.90
9201;DHT22;4635;48.686;9.008;2022-08-25T08:03:49;22.40;99.90
9201;DHT22;4635;48.686;9.008;2022-08-25T08:06:23;22.60;99.90
9201;DHT22;4635;48.686;9.008;2022-08-25T08:08:52;23.60;96.70
9201;DHT22;4635;48.686;9.008;2022-08-25T08:11:22;24.90;81.00
9201;DHT22;4635;48.686;9.008;2022-08-25T08:13:51;26.10;63.40
9201;DHT22;4635;48.686;9.008;2022-08-25T08:16:20;26.20;60.10
9201;DHT22;4635;48.686;9.008;2022-08-25T08:19:04;26.60;55.10
9201;DHT22;4635;48.686;9.008;2022-08-25T08:21:44;26.10;55.20
9201;DHT22;4635;48.686;9.008;2022-08-25T08:24:37;26.10;55.50
9201;DHT22;4635;48.686;9.008;2022-08-25T08:27:19;26.80;51.20
9201;DHT22;4635;48.686;9.008;2022-08-25T08:29:48;27.60;99.90
9201;DHT22;4635;48.686;9.008;2022-08-25T08:32:22;27.60;43.90
9201;DHT22;4635;48.686;9.008;2022-08-25T08:34:51;26.60;48.00
9201;DHT22;4635;48.686;9.008;2022-08-25T08:37:21;26.50;48.80
9201;DHT22;4635;48.686;9.008;2022-08-25T08:39:52;28.00;43.20
9201;DHT22;4635;48.686;9.008;2022-08-25T08:42:32;28.50;37.30
9201;DHT22;4635;48.686;9.008;2022-08-25T08:45:18;28.10;38.80
9201;DHT22;4635;48.686;9.008;2022-08-25T08:50:51;27.90;34.20
9201;DHT22;4635;48.686;9.008;2022-08-25T08:53:49;27.40;40.50
9201;DHT22;4635;48.686;9.008;2022-08-25T08:59:23;28.00;99.90
9201;DHT22;4635;48.686;9.008;2022-08-25T09:01:57;28.90;31.60
9201;DHT22;4635;48.686;9.008;2022-08-25T09:04:31;27.80;30.20
9201;DHT22;4635;48.686;9.008;2022-08-25T09:07:12;28.10;31.20
9201;DHT22;4635;48.686;9.008;2022-08-25T09:09:42;29.00;28.50
9201;DHT22;4635;48.686;9.008;2022-08-25T09:12:23;29.30;26.50
9201;DHT22;4635;48.686;9.008;2022-08-25T09:15:12;29.20;24.60
9201;DHT22;4635;48.686;9.008;2022-08-25T09:17:59;29.90;21.00
9201;DHT22;4635;48.686;9.008;2022-08-25T09:20:53;31.30;12.70
9201;DHT22;4635;48.686;9.008;2022-08-25T09:23:33;30.30;12.90
9201;DHT22;4635;48.686;9.008;2022-08-25T09:26:17;30.30;12.70
9201;DHT22;4635;48.686;9.008;2022-08-25T09:28:50;30.50;11.30
9201;DHT22;4635;48.686;9.008;2022-08-25T09:31:26;30.00;12.70
9201;DHT22;4635;48.686;9.008;2022-08-25T09:34:00;29.10;15.40
9201;DHT22;4635;48.686;9.008;2022-08-25T09:36:31;30.60;12.10
9201;DHT22;4635;48.686;9.008;2022-08-25T09:39:33;30.40;7.00
9201;DHT22;4635;48.686;9.008;2022-08-25T09:42:04;30.40;9.70
9201;DHT22;4635;48.686;9.008;2022-08-25T09:44:38;31.80;5.10
9201;DHT22;4635;48.686;9.008;2022-08-25T09:47:18;31.40;1.00
9201;DHT22;4635;48.686;9.008;2022-08-25T09:49:49;30.30;1.00
9201;DHT22;4635;48.686;9.008;2022-08-25T09:52:40;28.30;1.00
9201;DHT22;4635;48.686;9.008;2022-08-25T09:55:29;29.30;1.00
9201;DHT22;4635;48.686;9.008;2022-08-25T09:57:59;29.50;1.00
9201;DHT22;4635;48.686;9.008;2022-08-25T10:00:32;31.00;1.00
9201;DHT22;4635;48.686;9.008;2022-08-25T10:03:20;31.20;1.00
9201;DHT22;4635;48.686;9.008;2022-08-25T10:06:02;31.70;1.00
9201;DHT22;4635;48.686;9.008;2022-08-25T10:08:45;31.80;1.00
9201;DHT22;4635;48.686;9.008;2022-08-25T10:11:42;30.90;1.00
9201;DHT22;4635;48.686;9.008;2022-08-25T10:14:31;31.40;1.00
9201;DHT22;4635;48.686;9.008;2022-08-25T10:17:24;30.90;1.00
9201;DHT22;4635;48.686;9.008;2022-08-25T10:20:16;32.40;1.00
9201;DHT22;4635;48.686;9.008;2022-08-25T10:22:45;34.70;1.00
9201;DHT22;4635;48.686;9.008;2022-08-25T10:25:23;35.20;1.00
9201;DHT22;4635;48.686;9.008;2022-08-25T10:28:08;33.40;1.00
9201;DHT22;4635;48.686;9.008;2022-08-25T10:30:48;33.10;1.00
9201;DHT22;4635;48.686;9.008;2022-08-25T10:33:24;31.60;1.00
9201;DHT22;4635;48.686;9.008;2022-08-25T10:36:16;32.40;1.00
9201;DHT22;4635;48.686;9.008;2022-08-25T10:38:50;31.80;1.00
9201;DHT22;4635;48.686;9.008;2022-08-25T10:41:47;33.70;1.00
9201;DHT22;4635;48.686;9.008;2022-08-25T10:44:28;33.40;1.00
9201;DHT22;4635;48.686;9.008;2022-08-25T10:47:40;33.50;1.00
9201;DHT22;4635;48.686;9.008;2022-08-25T10:50:21;34.90;1.00
9201;DHT22;4635;48.686;9.008;2022-08-25T10:53:11;32.90;1.00
9201;DHT22;4635;48.686;9.008;2022-08-25T10:55:48;33.80;1.00
9201;DHT22;4635;48.686;9.008;2022-08-25T10:59:00;33.40;1.00
9201;DHT22;4635;48.686;9.008;2022-08-25T11:01:53;33.50;1.00
9201;DHT22;4635;48.686;9.008;2022-08-25T11:04:30;32.10;1.00
9201;DHT22;4635;48.686;9.008;2022-08-25T11:07:10;31.00;1.00
9201;DHT22;4635;48.686;9.008;2022-08-25T11:09:42;30.80;1.00
9201;DHT22;4635;48.686;9.008;2022-08-25T11:12:15;32.00;1.00
9201;DHT22;4635;48.686;9.008;2022-08-25T11:14:50;32.80;1.00
9201;DHT22;4635;48.686;9.008;2022-08-25T11:17:31;33.70;1.00
9201;DHT22;4635;48.686;9.008;2022-08-25T11:20:15;34.20;1.00
9201;DHT22;4635;48.686;9.008;2022-08-25T11:22:54;34.10;1.00
9201;DHT22;4635;48.686;9.008;2022-08-25T11:25:33;33.90;1.00
9201;DHT22;4635;48.686;9.008;2022-08-25T11:28:07;35.40;1.00
9201;DHT22;4635;48.686;9.008;2022-08-25T11:30:39;35.40;1.00
9201;DHT22;4635;48.686;9.008;2022-08-25T11:33:20;32.80;1.00
9201;DHT22;4635;48.686;9.008;2022-08-25T11:36:00;32.80;1.00
9201;DHT22;4635;48.686;9.008;2022-08-25T11:38:50;32.00;1.00
9201;DHT22;4635;48.686;9.008;2022-08-25T11:41:33;32.60;1.00
9201;DHT22;4635;48.686;9.008;2022-08-25T11:44:31;33.20;1.00
9201;DHT22;4635;48.686;9.008;2022-08-25T11:47:34;33.00;1.00
9201;DHT22;4635;48.686;9.008;2022-08-25T11:50:27;32.10;1.00
9201;DHT22;4635;48.686;9.008;2022-08-25T11:53:14;32.80;1.00
9201;DHT22;4635;48.686;9.008;2022-08-25T11:55:49;34.90;1.00
9201;DHT22;4635;48.686;9.008;2022-08-25T11:58:37;38.00;1.00
9201;DHT22;4635;48.686;9.008;2022-08-25T12:01:57;39.90;1.00
9201;DHT22;4635;48.686;9.008;2022-08-25T12:04:13;40.70;1.00
9201;DHT22;4635;48.686;9.008;2022-08-25T12:07:17;41.70;1.00
9201;DHT22;4635;48.686;9.008;2022-08-25T12:10:10;39.20;1.00
9201;DHT22;4635;48.686;9.008;2022-08-25T12:12:56;39.20;1.00
9201;DHT22;4635;48.686;9.008;2022-08-25T12:15:26;36.00;1.00
9201;DHT22;4635;48.686;9.008;2022-08-25T12:18:13;32.50;1.00
9201;DHT22;4635;48.686;9.008;2022-08-25T12:21:08;30.40;1.00
9201;DHT22;4635;48.686;9.008;2022-08-25T12:23:39;29.30;1.00
9201;DHT22;4635;48.686;9.008;2022-08-25T12:26:15;30.70;1.00
9201;DHT22;4635;48.686;9.008;2022-08-25T12:28:58;33.30;1.00
9201;DHT22;4635;48.686;9.008;2022-08-25T12:31:48;33.80;1.00
9201;DHT22;4635;48.686;9.008;2022-08-25T12:37:14;30.50;1.00
9201;DHT22;4635;48.686;9.008;2022-08-25T12:39:57;29.70;1.00
9201;DHT22;4635;48.686;9.008;2022-08-25T12:42:29;29.50;1.00
9201;DHT22;4635;48.686;9.008;2022-08-25T12:45:11;30.00;1.00
9201;DHT22;4635;48.686;9.008;2022-08-25T12:47:42;30.80;1.00
9201;DHT22;4635;48.686;9.008;2022-08-25T12:50:37;31.90;1.00
9201;DHT22;4635;48.686;9.008;2022-08-25T12:53:10;33.50;1.00
9201;DHT22;4635;48.686;9.008;2022-08-25T12:55:47;35.90;1.00
9201;DHT22;4635;48.686;9.008;2022-08-25T12:58:34;37.90;1.00
9201;DHT22;4635;48.686;9.008;2022-08-25T13:01:18;38.10;1.00
9201;DHT22;4635;48.686;9.008;2022-08-25T13:04:22;36.30;1.00
9201;DHT22;4635;48.686;9.008;2022-08-25T13:07:11;33.60;1.00
9201;DHT22;4635;48.686;9.008;2022-08-25T13:10:14;33.80;1.00
9201;DHT22;4635;48.686;9.008;2022-08-25T13:12:54;36.20;1.00
9201;DHT22;4635;48.686;9.008;2022-08-25T13:15:38;37.90;1.00
9201;DHT22;4635;48.686;9.008;2022-08-25T13:21:23;39.10;1.00
9201;DHT22;4635;48.686;9.008;2022-08-25T13:23:55;38.30;1.00
9201;DHT22;4635;48.686;9.008;2022-08-25T13:26:29;37.10;1.00
9201;DHT22;4635;48.686;9.008;2022-08-25T13:29:12;37.40;1.00
9201;DHT22;4635;48.686;9.008;2022-08-25T13:31:53;36.30;1.00
9201;DHT22;4635;48.686;9.008;2022-08-25T13:34:24;34.50;1.00
9201;DHT22;4635;48.686;9.008;2022-08-25T13:37:05;37.40;1.00
9201;DHT22;4635;48.686;9.008;2022-08-25T13:40:03;36.90;1.00
9201;DHT22;4635;48.686;9.008;2022-08-25T13:42:33;35.60;1.00
9201;DHT22;4635;48.686;9.008;2022-08-25T13:45:04;35.50;1.00
9201;DHT22;4635;48.686;9.008;2022-08-25T13:47:34;36.50;1.00
9201;DHT22;4635;48.686;9.008;2022-08-25T13:50:27;36.90;1.00
9201;DHT22;4635;48.686;9.008;2022-08-25T13:52:56;35.00;1.00
9201;DHT22;4635;48.686;9.008;2022-08-25T13:55:35;32.40;1.00
9201;DHT22;4635;48.686;9.008;2022-08-25T13:58:05;30.80;1.00
9201;DHT22;4635;48.686;9.008;2022-08-25T14:00:46;30.10;1.00
9201;DHT22;4635;48.686;9.008;2022-08-25T14:03:29;29.70;1.00
9201;DHT22;4635;48.686;9.008;2022-08-25T14:06:07;29.70;1.00
9201;DHT22;4635;48.686;9.008;2022-08-25T14:08:42;29.50;1.00
9201;DHT22;4635;48.686;9.008;2022-08-25T14:11:13;29.20;1.00
9201;DHT22;4635;48.686;9.008;2022-08-25T14:13:43;29.00;1.00
9201;DHT22;4635;48.686;9.008;2022-08-25T14:16:26;28.90;1.00
9201;DHT22;4635;48.686;9.008;2022-08-25T14:18:56;29.10;1.00
9201;DHT22;4635;48.686;9.008;2022-08-25T14:21:30;28.70;1.00
9201;DHT22;4635;48.686;9.008;2022-08-25T14:23:59;28.50;1.00
9201;DHT22;4635;48.686;9.008;2022-08-25T14:26:43;28.50;1.00
9201;DHT22;4635;48.686;9.008;2022-08-25T14:29:13;28.80;1.00
9201;DHT22;4635;48.686;9.008;2022-08-25T14:31:47;28.80;1.00
9201;DHT22;4635;48.686;9.008;2022-08-25T14:34:20;28.90;1.00
9201;DHT22;4635;48.686;9.008;2022-08-25T14:36:53;29.10;1.00
9201;DHT22;4635;48.686;9.008;2022-08-25T14:39:38;28.90;1.00
9201;DHT22;4635;48.686;9.008;2022-08-25T14:42:07;28.80;1.00
9201;DHT22;4635;48.686;9.008;2022-08-25T14:44:35;28.60;1.00
9201;DHT22;4635;48.686;9.008;2022-08-25T14:47:10;28.80;1.00
9201;DHT22;4635;48.686;9.008;2022-08-25T14:49:44;28.90;1.00
9201;DHT22;4635;48.686;9.008;2022-08-25T14:52:17;29.00;1.00
9201;DHT22;4635;48.686;9.008;2022-08-25T14:54:47;29.10;1.00
9201;DHT22;4635;48.686;9.008;2022-08-25T14:57:36;29.30;1.00
9201;DHT22;4635;48.686;9.008;2022-08-25T15:00:11;29.40;1.00
9201;DHT22;4635;48.686;9.008;2022-08-25T15:02:49;29.40;1.00
9201;DHT22;4635;48.686;9.008;2022-08-25T15:05:25;29.00;1.00
9201;DHT22;4635;48.686;9.008;2022-08-25T15:07:54;29.10;1.00
9201;DHT22;4635;48.686;9.008;2022-08-25T15:10:42;29.00;1.00
9201;DHT22;4635;48.686;9.008;2022-08-25T15:13:13;28.60;1.00
9201;DHT22;4635;48.686;9.008;2022-08-25T15:15:43;28.30;1.00
9201;DHT22;4635;48.686;9.008;2022-08-25T15:18:26;28.70;1.00
9201;DHT22;4635;48.686;9.008;2022-08-25T15:20:57;28.90;1.00
9201;DHT22;4635;48.686;9.008;2022-08-25T15:23:30;28.60;1.00
9201;DHT22;4635;48.686;9.008;2022-08-25T15:26:15;29.20;1.00
9201;DHT22;4635;48.686;9.008;2022-08-25T15:28:47;29.00;1.00
9201;DHT22;4635;48.686;9.008;2022-08-25T15:31:17;28.90;1.00
9201;DHT22;4635;48.686;9.008;2022-08-25T15:33:50;29.00;1.00
9201;DHT22;4635;48.686;9.008;2022-08-25T15:36:21;29.00;1.00
9201;DHT22;4635;48.686;9.008;2022-08-25T15:38:51;28.90;1.00
9201;DHT22;4635;48.686;9.008;2022-08-25T15:41:24;28.80;1.00
9201;DHT22;4635;48.686;9.008;2022-08-25T15:43:53;28.90;1.00
9201;DHT22;4635;48.686;9.008;2022-08-25T15:46:28;29.10;1.00
9201;DHT22;4635;48.686;9.008;2022-08-25T15:49:10;29.10;1.00
9201;DHT22;4635;48.686;9.008;2022-08-25T15:51:41;29.20;1.00
9201;DHT22;4635;48.686;9.008;2022-08-25T15:54:12;28.90;1.00
9201;DHT22;4635;48.686;9.008;2022-08-25T15:56:45;28.20;1.00
9201;DHT22;4635;48.686;9.008;2022-08-25T15:59:14;29.00;1.00
9201;DHT22;4635;48.686;9.008;2022-08-25T16:01:50;28.80;1.00
9201;DHT22;4635;48.686;9.008;2022-08-25T16:04:29;28.80;1.00
9201;DHT22;4635;48.686;9.008;2022-08-25T16:07:03;28.70;1.00
9201;DHT22;4635;48.686;9.008;2022-08-25T16:09:46;28.60;1.00
9201;DHT22;4635;48.686;9.008;2022-08-25T16:12:14;28.40;1.00
9201;DHT22;4635;48.686;9.008;2022-08-25T16:14:48;28.20;1.00
9201;DHT22;4635;48.686;9.008;2022-08-25T16:17:29;28.20;1.00
9201;DHT22;4635;48.686;9.008;2022-08-25T16:20:00;28.30;1.00
9201;DHT22;4635;48.686;9.008;2022-08-25T16:22:31;28.20;1.00
9201;DHT22;4635;48.686;9.008;2022-08-25T16:25:00;28.00;1.00
9201;DHT22;4635;48.686;9.008;2022-08-25T16:27:52;28.00;1.00
9201;DHT22;4635;48.686;9.008;2022-08-25T16:30:25;27.90;1.00
9201;DHT22;4635;48.686;9.008;2022-08-25T16:33:16;27.90;1.00
9201;DHT22;4635;48.686;9.008;2022-08-25T16:35:45;27.80;1.00
9201;DHT22;4635;48.686;9.008;2022-08-25T16:38:12;27.80;1.00
9201;DHT22;4635;48.686;9.008;2022-08-25T16:40:40;27.80;1.00
9201;DHT22;4635;48.686;9.008;2022-08-25T16:43:08;27.80;1.00
9201;DHT22;4635;48.686;9.008;2022-08-25T16:45:41;27.80;1.00
9201;DHT22;4635;48.686;9.008;2022-08-25T16:48:08;27.70;1.00
9201;DHT22;4635;48.686;9.008;2022-08-25T16:50:38;27.60;1.00
9201;DHT22;4635;48.686;9.008;2022-08-25T16:53:07;27.70;1.00
9201;DHT22;4635;48.686;9.008;2022-08-25T16:55:59;27.70;1.00
9201;DHT22;4635;48.686;9.008;2022-08-25T16:58:27;27.70;1.00
9201;DHT22;4635;48.686;9.008;2022-08-25T17:00:54;27.70;1.00
9201;DHT22;4635;48.686;9.008;2022-08-25T17:03:22;27.70;1.00
9201;DHT22;4635;48.686;9.008;2022-08-25T17:05:51;27.60;1.00